Time;durP1;ratioP1;P1;durP2;ratioP2;P2;SDS_P1;SDS_P2;PMS_P1;PMS_P2;Temp;Humidity;BMP_temperature;BMP_pressure;BME280_temperature;BME280_humidity;BME280_pressure;Samples;Min_cycle;Max_cycle;Signal;HPM_P1;HPM_P2
2024/01/14 00:02:10;;;;;;;19.20;12.73;;;3.50;99.90;;;;;;5052849;28;20275;-69
2024/01/14 00:04:35;;;;;;;21.07;13.33;;;3.60;99.90;;;;;;5053599;28;20248;-69
2024/01/14 00:07:01;;;;;;;18.90;12.07;;;3.60;99.90;;;;;;5053635;28;20537;-69
2024/01/14 00:09:27;;;;;;;19.40;13.17;;;3.40;99.90;;;;;;5035838;28;20640;-70
2024/01/14 00:11:52;;;;;;;19.37;12.67;;;3.50;99.90;;;;;;5053467;28;20230;-69
2024/01/14 00:14:18;;;;;;;21.77;13.03;;;3.50;99.90;;;;;;5053512;28;20165;-69
2024/01/14 00:16:44;;;;;;;23.07;13.03;;;3.50;99.90;;;;;;5053557;28;20203;-70
2024/01/14 00:19:10;;;;;;;20.53;12.77;;;4.00;99.90;;;;;;5053388;28;20247;-69
2024/01/14 00:21:36;;;;;;;23.03;13.77;;;3.40;99.90;;;;;;5053197;28;20244;-69
2024/01/14 00:24:05;;;;;;;19.67;13.50;;;3.50;99.90;;;;;;5053259;28;20647;-69
2024/01/14 00:26:32;;;;;;;21.10;13.50;;;;;;;;;;5053396;28;20173;-69
2024/01/14 00:29:02;;;;;;;21.63;13.87;;;3.40;99.90;;;;;;5053237;28;20173;-70
2024/01/14 00:31:28;;;;;;;23.40;14.70;;;3.40;99.90;;;;;;5053230;28;20166;-70
2024/01/14 00:33:54;;;;;;;20.07;13.10;;;3.40;99.90;;;;;;5053209;28;20169;-69
2024/01/14 00:36:20;;;;;;;21.10;13.47;;;3.40;99.90;;;;;;5052684;28;20236;-69
2024/01/14 00:38:45;;;;;;;21.33;13.57;;;4.80;99.90;;;;;;5053162;28;20169;-70
2024/01/14 00:41:12;;;;;;;20.63;13.87;;;;;;;;;;5052933;28;20296;-69
2024/01/14 00:43:37;;;;;;;22.40;13.67;;;3.40;99.90;;;;;;5053091;28;20655;-69
2024/01/14 00:46:03;;;;;;;24.23;14.43;;;3.40;99.90;;;;;;5053036;28;20208;-70
2024/01/14 00:48:30;;;;;;;24.60;14.17;;;3.40;99.90;;;;;;5052241;28;20173;-70
2024/01/14 00:50:56;;;;;;;23.20;14.70;;;3.40;99.90;;;;;;5052866;28;20181;-70
2024/01/14 00:53:21;;;;;;;19.60;13.37;;;3.50;99.90;;;;;;5052548;28;20177;-69
2024/01/14 00:55:47;;;;;;;24.83;14.83;;;3.50;99.90;;;;;;5052678;28;20173;-69
2024/01/14 00:58:13;;;;;;;26.40;15.53;;;3.50;99.90;;;;;;5052741;28;20177;-69
2024/01/14 01:00:39;;;;;;;21.57;13.90;;;3.50;99.90;;;;;;5052484;28;20617;-69
2024/01/14 01:03:05;;;;;;;19.50;12.20;;;3.50;99.90;;;;;;5052607;28;20180;-69
2024/01/14 01:05:30;;;;;;;20.97;12.77;;;3.50;99.90;;;;;;5034691;28;20666;-69
2024/01/14 01:07:56;;;;;;;20.20;13.00;;;3.50;99.90;;;;;;5052516;28;20169;-70
2024/01/14 01:10:22;;;;;;;18.27;12.77;;;3.60;99.90;;;;;;5052633;28;20170;-70
2024/01/14 01:12:47;;;;;;;19.27;12.23;;;3.60;99.90;;;;;;5052373;28;20179;-70
2024/01/14 01:15:13;;;;;;;21.50;12.57;;;3.80;99.90;;;;;;5052330;28;20166;-70
2024/01/14 01:17:40;;;;;;;21.37;12.20;;;3.60;99.90;;;;;;5052204;28;20169;-71
2024/01/14 01:20:09;;;;;;;18.13;12.33;;;3.60;99.90;;;;;;5052181;28;20212;-70
2024/01/14 01:22:35;;;;;;;19.43;12.27;;;;;;;;;;5052410;28;20223;-70
2024/01/14 01:25:01;;;;;;;19.37;12.67;;;3.60;99.90;;;;;;5051959;28;20174;-70
2024/01/14 01:27:29;;;;;;;19.57;13.63;;;3.60;99.90;;;;;;5038602;28;20239;-70
2024/01/14 01:29:55;;;;;;;19.67;12.70;;;3.50;99.90;;;;;;5051876;28;20239;-71
2024/01/14 01:32:21;;;;;;;17.23;12.27;;;3.60;99.90;;;;;;5041521;28;20265;-70
2024/01/14 01:34:46;;;;;;;20.33;12.10;;;3.60;99.90;;;;;;5031959;28;20216;-70
2024/01/14 01:37:12;;;;;;;17.93;11.93;;;3.60;99.90;;;;;;5031794;28;20241;-70
2024/01/14 01:39:38;;;;;;;18.83;11.33;;;3.70;99.90;;;;;;5031840;28;20178;-69
2024/01/14 01:42:04;;;;;;;16.10;11.43;;;3.70;99.90;;;;;;5031893;28;20184;-69
2024/01/14 01:44:30;;;;;;;19.70;12.57;;;3.70;99.90;;;;;;5041746;28;20196;-69
2024/01/14 01:46:56;;;;;;;18.10;12.70;;;3.80;99.90;;;;;;5051191;28;20656;-70
2024/01/14 01:49:22;;;;;;;18.40;11.87;;;3.60;99.90;;;;;;5051423;28;20165;-69
2024/01/14 01:51:50;;;;;;;18.80;12.60;;;4.10;99.90;;;;;;5051551;28;20303;-69
2024/01/14 01:54:22;;;;;;;18.73;11.93;;;3.60;99.90;;;;;;5051528;28;20204;-70
2024/01/14 01:56:50;;;;;;;15.10;11.53;;;3.50;99.90;;;;;;5051340;28;20169;-69
2024/01/14 01:59:16;;;;;;;18.37;12.67;;;3.50;99.90;;;;;;5051521;28;20180;-69
2024/01/14 02:01:46;;;;;;;18.27;12.50;;;3.50;99.90;;;;;;5051111;28;20204;-69
2024/01/14 02:04:13;;;;;;;18.63;12.67;;;3.50;99.90;;;;;;5051466;28;20178;-70
2024/01/14 02:06:40;;;;;;;18.10;12.67;;;3.50;99.90;;;;;;5051243;28;20672;-69
2024/01/14 02:09:07;;;;;;;18.80;12.00;;;3.40;99.90;;;;;;5051381;28;20173;-69
2024/01/14 02:11:33;;;;;;;24.27;13.33;;;3.50;99.90;;;;;;5051384;28;20276;-69
2024/01/14 02:13:59;;;;;;;17.23;12.03;;;3.40;99.90;;;;;;5033167;28;20169;-69
2024/01/14 02:16:25;;;;;;;19.00;12.43;;;3.40;99.90;;;;;;5051265;28;20184;-69
2024/01/14 02:18:51;;;;;;;17.20;12.03;;;3.40;99.90;;;;;;5051160;28;20635;-69
2024/01/14 02:21:20;;;;;;;18.43;11.97;;;3.40;99.90;;;;;;5051222;28;20560;-69
2024/01/14 02:23:53;;;;;;;19.47;12.40;;;3.40;99.90;;;;;;5051174;28;20659;-69
2024/01/14 02:26:18;;;;;;;19.47;12.83;;;3.40;99.90;;;;;;5033251;28;20544;-70
2024/01/14 02:28:44;;;;;;;20.73;12.20;;;3.40;99.90;;;;;;5051098;28;20169;-71
2024/01/14 02:31:10;;;;;;;19.03;12.50;;;3.30;99.90;;;;;;5050961;28;20185;-71
2024/01/14 02:33:36;;;;;;;20.37;12.27;;;3.30;99.90;;;;;;5051000;28;20179;-68
2024/01/14 02:36:01;;;;;;;20.17;12.47;;;3.30;99.90;;;;;;5050671;28;20303;-68
2024/01/14 02:38:27;;;;;;;23.50;13.50;;;3.20;99.90;;;;;;5050967;28;20222;-68
2024/01/14 02:40:53;;;;;;;18.03;12.23;;;3.30;99.90;;;;;;5050962;28;20555;-68
2024/01/14 02:43:18;;;;;;;22.00;13.23;;;3.70;99.90;;;;;;5050880;28;20515;-71
2024/01/14 02:45:44;;;;;;;22.50;13.57;;;3.30;99.90;;;;;;5050979;28;20744;-70
2024/01/14 02:48:10;;;;;;;20.30;12.40;;;3.30;99.90;;;;;;5051120;28;20191;-70
2024/01/14 02:50:35;;;;;;;20.70;13.30;;;3.40;99.90;;;;;;5032828;28;20185;-68
2024/01/14 02:53:01;;;;;;;18.37;12.57;;;3.30;99.90;;;;;;5050868;28;20173;-68
2024/01/14 02:55:26;;;;;;;19.00;12.83;;;3.30;99.90;;;;;;5050712;28;20177;-68
2024/01/14 02:57:52;;;;;;;21.50;12.90;;;3.20;99.90;;;;;;5051269;28;20179;-68
2024/01/14 03:00:18;;;;;;;20.27;12.83;;;3.20;99.90;;;;;;5054896;28;20199;-68
2024/01/14 03:02:43;;;;;;;21.57;14.00;;;3.20;99.90;;;;;;5054948;28;20180;-68
2024/01/14 03:05:09;;;;;;;18.63;12.77;;;3.30;99.90;;;;;;5054807;28;20205;-68
2024/01/14 03:07:35;;;;;;;20.20;12.93;;;3.30;99.90;;;;;;5054664;28;20180;-68
2024/01/14 03:10:00;;;;;;;20.17;13.10;;;3.30;99.90;;;;;;5054732;28;20172;-68
2024/01/14 03:12:26;;;;;;;23.37;12.83;;;;;;;;;;5054649;28;20192;-70
2024/01/14 03:14:52;;;;;;;20.87;13.33;;;3.30;99.90;;;;;;5054602;28;20169;-71
2024/01/14 03:17:17;;;;;;;20.77;12.53;;;3.60;99.90;;;;;;5054714;28;20252;-69
2024/01/14 03:19:43;;;;;;;19.70;12.97;;;3.40;99.90;;;;;;5054609;28;20671;-69
2024/01/14 03:22:10;;;;;;;20.10;13.60;;;3.50;99.90;;;;;;5054534;28;20735;-70
2024/01/14 03:24:35;;;;;;;23.73;12.83;;;3.50;99.90;;;;;;5054550;28;20540;-70
2024/01/14 03:27:01;;;;;;;22.27;14.13;;;3.50;99.90;;;;;;5054338;28;20161;-71
2024/01/14 03:29:27;;;;;;;19.80;13.00;;;3.50;99.90;;;;;;5054428;28;20184;-70
2024/01/14 03:31:52;;;;;;;21.07;13.27;;;3.50;99.90;;;;;;5054357;28;20184;-70
2024/01/14 03:34:18;;;;;;;25.33;13.53;;;3.50;99.90;;;;;;5036363;28;20173;-68
2024/01/14 03:36:44;;;;;;;18.03;12.77;;;3.50;99.90;;;;;;5053994;28;20253;-68
2024/01/14 03:39:09;;;;;;;22.07;14.07;;;3.50;99.90;;;;;;5054136;28;20176;-68
2024/01/14 03:41:35;;;;;;;19.20;12.73;;;3.50;99.90;;;;;;5054057;28;20247;-68
2024/01/14 03:44:01;;;;;;;18.10;12.17;;;3.60;99.90;;;;;;5053965;28;20180;-68
2024/01/14 03:46:26;;;;;;;20.53;12.90;;;3.60;99.90;;;;;;5054046;28;20640;-69
2024/01/14 03:48:52;;;;;;;18.63;12.97;;;3.60;99.90;;;;;;5053887;28;20204;-68
2024/01/14 03:51:18;;;;;;;21.00;13.37;;;3.50;99.90;;;;;;5053929;28;20176;-68
2024/01/14 03:53:43;;;;;;;21.73;13.67;;;3.60;99.90;;;;;;5054037;28;20590;-68
2024/01/14 03:56:09;;;;;;;18.23;12.47;;;3.60;99.90;;;;;;5053781;28;20173;-68
2024/01/14 03:58:35;;;;;;;21.43;13.57;;;3.30;99.90;;;;;;5053658;28;20207;-68
2024/01/14 04:01:00;;;;;;;20.20;12.77;;;3.40;99.90;;;;;;5053801;28;20334;-68
2024/01/14 04:03:26;;;;;;;21.60;12.80;;;3.60;99.90;;;;;;5053351;28;20166;-68
2024/01/14 04:05:52;;;;;;;21.00;13.33;;;3.60;99.90;;;;;;5053781;28;20585;-68
2024/01/14 04:08:17;;;;;;;18.90;12.63;;;3.80;99.90;;;;;;5053088;28;20174;-68
2024/01/14 04:10:43;;;;;;;23.23;13.27;;;3.40;99.90;;;;;;5052607;28;20185;-68
2024/01/14 04:13:09;;;;;;;20.93;14.23;;;3.50;99.90;;;;;;5052977;28;20670;-68
2024/01/14 04:15:36;;;;;;;22.47;14.07;;;3.60;99.90;;;;;;5043520;28;20205;-68
2024/01/14 04:18:01;;;;;;;19.97;13.27;;;3.50;99.90;;;;;;5049490;28;20205;-68
2024/01/14 04:20:27;;;;;;;18.77;12.20;;;3.60;99.90;;;;;;5052995;28;20286;-68
2024/01/14 04:22:52;;;;;;;22.77;14.53;;;3.70;99.90;;;;;;5052954;28;20666;-68
2024/01/14 04:25:18;;;;;;;20.17;13.40;;;1.60;99.90;;;;;;5034934;28;20181;-68
2024/01/14 04:27:44;;;;;;;18.90;12.97;;;3.60;99.90;;;;;;5052776;28;20184;-68
2024/01/14 04:30:10;;;;;;;19.90;13.37;;;3.60;99.90;;;;;;5052772;28;20181;-68
2024/01/14 04:32:36;;;;;;;18.27;13.30;;;3.60;99.90;;;;;;5052726;28;20170;-68
2024/01/14 04:35:02;;;;;;;20.10;13.30;;;3.60;99.90;;;;;;5052806;28;20690;-68
2024/01/14 04:37:27;;;;;;;18.67;13.03;;;3.50;99.90;;;;;;5053188;28;20225;-68
2024/01/14 04:39:55;;;;;;;20.10;12.47;;;3.60;99.90;;;;;;5052318;28;20640;-68
2024/01/14 04:42:21;;;;;;;21.93;13.57;;;3.50;99.90;;;;;;5052786;28;20193;-68
2024/01/14 04:44:47;;;;;;;22.33;12.97;;;3.50;99.90;;;;;;5052362;28;20261;-68
2024/01/14 04:47:12;;;;;;;19.30;13.17;;;2.70;99.90;;;;;;5032128;28;20719;-68
2024/01/14 04:49:38;;;;;;;19.00;12.60;;;3.40;99.90;;;;;;5052670;28;20181;-68
2024/01/14 04:52:04;;;;;;;21.13;14.37;;;3.30;99.90;;;;;;5052759;28;20242;-68
2024/01/14 04:54:29;;;;;;;18.07;13.37;;;3.00;99.90;;;;;;5034343;28;20200;-68
2024/01/14 04:56:57;;;;;;;25.77;14.77;;;3.10;99.90;;;;;;5052375;28;20174;-68
2024/01/14 04:59:23;;;;;;;22.67;13.97;;;3.20;99.90;;;;;;5052171;28;20176;-68
2024/01/14 05:01:48;;;;;;;24.13;14.40;;;3.20;99.90;;;;;;5052136;28;20201;-68
2024/01/14 05:04:14;;;;;;;20.93;13.40;;;;;;;;;;5052292;28;20173;-68
2024/01/14 05:06:40;;;;;;;18.23;12.60;;;;;;;;;;5052111;28;20184;-68
2024/01/14 05:09:06;;;;;;;20.27;13.57;;;3.30;99.90;;;;;;5052052;28;20264;-68
2024/01/14 05:11:32;;;;;;;21.50;13.07;;;3.20;99.90;;;;;;5052273;28;20600;-69
2024/01/14 05:13:58;;;;;;;20.83;13.93;;;3.20;99.90;;;;;;5051651;28;20255;-68
2024/01/14 05:16:24;;;;;;;23.57;14.20;;;3.20;99.90;;;;;;5052264;28;20174;-68
2024/01/14 05:18:50;;;;;;;24.10;14.40;;;3.20;99.90;;;;;;5034380;28;20632;-68
2024/01/14 05:21:16;;;;;;;17.43;12.43;;;3.20;99.90;;;;;;5051410;28;20219;-68
2024/01/14 05:23:43;;;;;;;22.27;13.20;;;3.20;99.90;;;;;;5051735;28;20170;-68
2024/01/14 05:26:09;;;;;;;21.67;13.23;;;3.40;99.90;;;;;;5052301;28;20169;-68
2024/01/14 05:28:34;;;;;;;20.60;13.43;;;3.20;99.90;;;;;;5051913;28;20264;-68
2024/01/14 05:31:00;;;;;;;21.60;12.83;;;3.70;99.90;;;;;;5051627;28;20260;-68
2024/01/14 05:33:26;;;;;;;20.53;12.67;;;3.70;99.90;;;;;;5033447;28;20177;-68
2024/01/14 05:35:51;;;;;;;21.73;14.57;;;3.00;99.90;;;;;;5051913;28;20181;-68
2024/01/14 05:38:17;;;;;;;19.90;14.37;;;2.80;99.90;;;;;;5051637;28;20228;-68
2024/01/14 05:40:43;;;;;;;22.30;14.10;;;3.20;99.90;;;;;;5051856;28;20208;-68
2024/01/14 05:43:08;;;;;;;25.50;14.70;;;3.20;99.90;;;;;;5051780;28;20165;-68
2024/01/14 05:45:34;;;;;;;19.50;12.60;;;3.20;99.90;;;;;;5051834;28;20173;-68
2024/01/14 05:48:00;;;;;;;20.00;13.17;;;3.10;99.90;;;;;;5051740;28;20209;-68
2024/01/14 05:50:26;;;;;;;20.33;12.23;;;3.90;99.90;;;;;;5033775;28;20191;-68
2024/01/14 05:52:51;;;;;;;28.27;15.00;;;3.20;99.90;;;;;;5051728;28;20184;-68
2024/01/14 05:55:17;;;;;;;19.03;13.07;;;3.10;99.90;;;;;;5051533;28;20173;-68
2024/01/14 05:57:43;;;;;;;20.63;13.40;;;3.10;99.90;;;;;;5051783;28;20213;-68
2024/01/14 06:00:09;;;;;;;18.30;13.13;;;3.10;99.90;;;;;;5033683;28;20244;-68
2024/01/14 06:02:35;;;;;;;19.97;13.60;;;3.10;99.90;;;;;;5051396;28;20750;-68
2024/01/14 06:05:00;;;;;;;21.83;13.43;;;3.10;99.90;;;;;;5051524;28;20248;-68
2024/01/14 06:07:26;;;;;;;19.07;12.73;;;3.00;99.90;;;;;;5051426;28;20184;-67
2024/01/14 06:09:52;;;;;;;30.90;14.47;;;3.10;99.90;;;;;;5051344;28;20177;-68
2024/01/14 06:12:17;;;;;;;18.93;12.70;;;3.10;99.90;;;;;;5051496;28;20180;-68
2024/01/14 06:14:43;;;;;;;20.30;13.60;;;;;;;;;;5051315;28;20620;-68
2024/01/14 06:17:09;;;;;;;20.30;13.67;;;;;;;;;;5051265;28;20173;-68
2024/01/14 06:19:35;;;;;;;21.33;13.37;;;3.10;99.90;;;;;;5041813;28;20217;-68
2024/01/14 06:22:01;;;;;;;18.77;12.93;;;3.00;99.90;;;;;;5031100;28;20237;-68
2024/01/14 06:24:27;;;;;;;21.43;13.60;;;3.10;99.90;;;;;;5031363;28;20177;-68
2024/01/14 06:26:53;;;;;;;19.43;13.47;;;3.00;99.90;;;;;;5033140;28;20636;-68
2024/01/14 06:29:19;;;;;;;18.77;13.70;;;3.00;99.90;;;;;;5051205;28;20166;-69
2024/01/14 06:31:45;;;;;;;20.40;13.70;;;3.00;99.90;;;;;;5051048;28;20191;-68
2024/01/14 06:34:11;;;;;;;19.53;13.27;;;3.00;99.90;;;;;;5050366;28;20173;-68
2024/01/14 06:36:37;;;;;;;28.00;14.10;;;3.40;99.90;;;;;;5050187;28;20310;-68
2024/01/14 06:39:05;;;;;;;19.57;12.93;;;2.60;99.90;;;;;;5050712;28;20211;-67
2024/01/14 06:41:31;;;;;;;22.23;14.07;;;2.70;99.90;;;;;;5050554;28;20196;-68
2024/01/14 06:43:57;;;;;;;20.97;14.27;;;3.00;99.90;;;;;;5050920;28;20183;-68
2024/01/14 06:46:22;;;;;;;20.93;13.57;;;2.80;99.90;;;;;;5032977;28;20209;-68
2024/01/14 06:48:48;;;;;;;19.17;13.63;;;3.00;99.90;;;;;;5050911;28;20666;-68
2024/01/14 06:51:14;;;;;;;21.87;13.50;;;3.00;99.90;;;;;;5042751;28;20261;-68
2024/01/14 06:53:40;;;;;;;20.37;14.03;;;3.00;99.90;;;;;;5044847;28;20185;-68
2024/01/14 06:56:06;;;;;;;20.53;13.80;;;3.00;99.90;;;;;;5050039;28;20177;-68
2024/01/14 06:58:33;;;;;;;21.17;13.33;;;3.10;99.90;;;;;;5030801;28;20668;-68
2024/01/14 07:00:58;;;;;;;19.03;12.87;;;3.00;99.90;;;;;;5047948;28;20240;-68
2024/01/14 07:03:24;;;;;;;18.50;12.40;;;3.00;99.90;;;;;;5050651;28;20201;-68
2024/01/14 07:05:50;;;;;;;18.73;12.83;;;3.10;99.90;;;;;;5050687;28;20173;-69
2024/01/14 07:08:15;;;;;;;18.97;12.40;;;3.00;99.90;;;;;;5050573;28;20287;-69
2024/01/14 07:10:41;;;;;;;21.37;13.47;;;3.10;99.90;;;;;;5050567;28;20174;-69
2024/01/14 07:13:07;;;;;;;18.30;12.70;;;3.00;99.90;;;;;;5050598;28;20162;-69
2024/01/14 07:15:32;;;;;;;17.70;12.93;;;3.10;99.90;;;;;;5050622;28;20656;-70
2024/01/14 07:17:58;;;;;;;19.10;13.77;;;3.00;99.90;;;;;;5050580;28;20165;-69
2024/01/14 07:20:24;;;;;;;21.27;13.27;;;3.10;99.90;;;;;;5050389;28;20197;-70
2024/01/14 07:22:49;;;;;;;18.30;13.33;;;3.10;99.90;;;;;;5050536;28;20187;-70
2024/01/14 07:25:15;;;;;;;19.17;13.10;;;3.10;99.90;;;;;;5050583;28;20632;-70
2024/01/14 07:27:41;;;;;;;22.93;13.57;;;3.30;99.90;;;;;;5050482;28;20173;-70
2024/01/14 07:30:07;;;;;;;19.23;13.23;;;3.10;99.90;;;;;;5050420;28;20220;-69
2024/01/14 07:32:33;;;;;;;46.77;15.80;;;3.10;99.90;;;;;;5050621;28;20162;-69
2024/01/14 07:34:59;;;;;;;20.40;12.87;;;3.20;99.90;;;;;;5050386;28;20173;-70
2024/01/14 07:37:25;;;;;;;21.80;13.87;;;3.10;99.90;;;;;;5032344;28;20578;-70
2024/01/14 07:39:50;;;;;;;20.03;13.43;;;3.20;99.90;;;;;;5050573;28;20169;-69
2024/01/14 07:42:16;;;;;;;20.40;13.73;;;3.10;99.90;;;;;;5050385;28;20231;-70
2024/01/14 07:44:43;;;;;;;18.27;13.00;;;3.10;99.90;;;;;;5052256;28;20178;-69
2024/01/14 07:47:08;;;;;;;22.37;13.00;;;3.30;99.90;;;;;;5054075;28;20177;-69
2024/01/14 07:49:34;;;;;;;20.60;13.13;;;3.10;99.90;;;;;;5053980;28;20659;-69
2024/01/14 07:52:00;;;;;;;18.87;12.90;;;;;;;;;;5054083;28;20173;-69
2024/01/14 07:54:25;;;;;;;20.63;13.50;;;3.10;99.90;;;;;;5053978;28;20672;-69
2024/01/14 07:56:51;;;;;;;19.87;13.60;;;3.10;99.90;;;;;;5054029;28;20180;-69
2024/01/14 07:59:20;;;;;;;18.43;12.90;;;2.90;99.90;;;;;;5053845;28;20180;-69
2024/01/14 08:01:46;;;;;;;20.20;12.47;;;3.00;99.90;;;;;;5053765;28;20294;-69
2024/01/14 08:04:12;;;;;;;20.43;13.30;;;3.20;99.90;;;;;;5052526;28;20702;-69
2024/01/14 08:06:38;;;;;;;18.90;12.40;;;2.90;99.90;;;;;;5035316;28;20173;-69
2024/01/14 08:09:03;;;;;;;19.20;12.73;;;3.20;99.90;;;;;;5053009;28;20181;-69
2024/01/14 08:11:29;;;;;;;16.50;12.10;;;;;;;;;;5052711;28;20522;-69
2024/01/14 08:13:55;;;;;;;17.90;12.50;;;3.50;99.90;;;;;;5053425;28;20278;-69
2024/01/14 08:16:21;;;;;;;17.30;12.50;;;3.30;99.90;;;;;;5052599;28;20205;-68
2024/01/14 08:18:46;;;;;;;21.03;13.23;;;3.20;99.90;;;;;;5041135;28;20577;-69
2024/01/14 08:21:12;;;;;;;19.30;12.77;;;3.30;99.90;;;;;;5052457;28;20299;-69
2024/01/14 08:23:38;;;;;;;17.67;12.83;;;3.20;99.90;;;;;;5053273;28;20165;-69
2024/01/14 08:26:04;;;;;;;17.10;12.37;;;3.20;99.90;;;;;;5053379;28;20544;-69
2024/01/14 08:28:32;;;;;;;17.87;12.73;;;3.20;99.90;;;;;;5035451;28;20691;-69
2024/01/14 08:30:57;;;;;;;20.27;12.43;;;3.30;99.90;;;;;;5040802;28;20181;-69
2024/01/14 08:33:23;;;;;;;18.50;11.90;;;3.20;99.90;;;;;;5033354;28;20166;-69
2024/01/14 08:35:49;;;;;;;21.23;12.83;;;3.30;99.90;;;;;;5033131;28;20260;-69
2024/01/14 08:38:15;;;;;;;17.47;12.70;;;;;;;;;;5033183;28;20320;-69
2024/01/14 08:40:41;;;;;;;16.50;11.97;;;3.10;99.90;;;;;;5053085;28;20288;-69
2024/01/14 08:43:07;;;;;;;17.03;12.00;;;3.30;99.90;;;;;;5052958;28;20635;-69
2024/01/14 08:45:32;;;;;;;20.33;12.33;;;2.90;99.90;;;;;;5053118;28;20652;-69
2024/01/14 08:47:58;;;;;;;17.13;11.50;;;3.60;99.90;;;;;;5052566;28;20235;-69
2024/01/14 08:50:23;;;;;;;18.03;12.30;;;3.40;99.90;;;;;;5052013;28;20260;-69
2024/01/14 08:52:49;;;;;;;19.23;12.17;;;3.60;99.90;;;;;;5034474;28;20184;-69
2024/01/14 08:55:15;;;;;;;18.53;11.50;;;3.50;99.90;;;;;;5052152;28;20197;-69
2024/01/14 08:57:41;;;;;;;15.47;11.67;;;3.90;99.90;;;;;;5052339;28;20174;-69
2024/01/14 09:00:08;;;;;;;15.17;11.07;;;3.60;99.90;;;;;;5052651;28;20169;-69
2024/01/14 09:02:34;;;;;;;18.10;11.40;;;3.80;99.90;;;;;;5052312;28;20177;-69
2024/01/14 09:05:00;;;;;;;19.63;11.57;;;;;;;;;;5052661;28;20223;-68
2024/01/14 09:07:26;;;;;;;25.20;12.93;;;3.30;99.90;;;;;;5052529;28;20291;-69
2024/01/14 09:09:52;;;;;;;21.03;12.47;;;3.80;99.90;;;;;;5052033;28;20208;-69
2024/01/14 09:12:17;;;;;;;16.30;10.60;;;3.80;99.90;;;;;;5052511;28;20636;-69
2024/01/14 09:14:43;;;;;;;15.43;10.63;;;3.90;99.90;;;;;;5052182;28;20177;-69
2024/01/14 09:17:10;;;;;;;14.87;10.47;;;3.90;99.90;;;;;;5052427;28;20180;-69
2024/01/14 09:19:36;;;;;;;15.57;10.60;;;4.00;99.90;;;;;;5052339;28;20165;-69
2024/01/14 09:22:02;;;;;;;17.60;10.47;;;3.90;99.90;;;;;;5052226;28;20680;-69
2024/01/14 09:24:29;;;;;;;18.03;11.00;;;4.10;99.90;;;;;;5051743;28;20256;-69
2024/01/14 09:26:54;;;;;;;15.80;10.70;;;4.10;99.90;;;;;;5045510;28;20221;-68
2024/01/14 09:29:20;;;;;;;18.33;11.50;;;;;;;;;;5044648;28;20193;-68
2024/01/14 09:31:46;;;;;;;15.93;10.80;;;4.20;99.90;;;;;;5051719;28;20173;-68
2024/01/14 09:34:12;;;;;;;14.27;10.93;;;4.40;99.90;;;;;;5035249;28;20195;-70
2024/01/14 09:36:40;;;;;;;12.87;10.73;;;;;;;;;;5051875;28;20279;-69
2024/01/14 09:39:10;;;;;;;16.30;10.80;;;4.50;99.90;;;;;;5051917;28;20239;-68
2024/01/14 09:41:48;;;;;;;15.33;10.83;;;4.70;99.90;;;;;;5051561;28;20209;-69
2024/01/14 09:44:15;;;;;;;14.23;10.33;;;4.60;99.90;;;;;;5050892;28;20271;-69
2024/01/14 09:46:42;;;;;;;19.03;11.80;;;4.60;99.90;;;;;;5051159;28;20220;-69
2024/01/14 09:49:10;;;;;;;18.13;10.80;;;;;;;;;;5050980;28;20180;-71
2024/01/14 09:51:37;;;;;;;20.40;11.67;;;5.00;99.90;;;;;;5051748;28;20235;-70
2024/01/14 09:54:03;;;;;;;19.50;12.80;;;4.40;99.90;;;;;;5051588;28;20511;-70
2024/01/14 09:56:35;;;;;;;18.50;12.10;;;4.80;99.90;;;;;;5051075;28;20177;-69
2024/01/14 09:59:02;;;;;;;16.77;11.23;;;4.60;99.90;;;;;;5050673;28;20635;-70
2024/01/14 10:01:31;;;;;;;15.83;10.00;;;5.00;99.90;;;;;;5050802;28;20205;-70
2024/01/14 10:04:07;;;;;;;14.20;10.17;;;4.90;99.90;;;;;;5051444;28;20165;-69
2024/01/14 10:06:33;;;;;;;18.30;11.03;;;5.00;99.90;;;;;;5050586;28;20173;-69
2024/01/14 10:08:59;;;;;;;21.87;12.17;;;5.00;99.90;;;;;;5051391;28;20705;-70
2024/01/14 10:11:25;;;;;;;17.00;11.13;;;5.10;99.90;;;;;;5050071;28;20196;-69
2024/01/14 10:13:51;;;;;;;19.77;10.87;;;6.00;99.90;;;;;;5033409;28;20179;-69
2024/01/14 10:16:17;;;;;;;16.57;11.00;;;3.90;99.90;;;;;;5051343;28;20176;-69
2024/01/14 10:18:44;;;;;;;20.47;10.67;;;4.80;99.90;;;;;;5051223;28;20169;-70
2024/01/14 10:21:10;;;;;;;12.80;9.73;;;5.70;99.90;;;;;;5050897;28;20208;-69
2024/01/14 10:23:39;;;;;;;17.53;10.87;;;5.90;99.90;;;;;;5050126;28;20314;-69
2024/01/14 10:26:06;;;;;;;15.67;9.93;;;6.40;99.90;;;;;;5051241;28;20555;-69
2024/01/14 10:28:35;;;;;;;14.40;9.90;;;6.30;99.90;;;;;;5051471;28;20177;-69
2024/01/14 10:31:03;;;;;;;13.37;9.53;;;6.60;99.90;;;;;;5051051;28;20563;-68
2024/01/14 10:33:35;;;;;;;15.00;8.87;;;6.90;99.90;;;;;;5050358;28;20203;-68
2024/01/14 10:36:07;;;;;;;12.77;7.47;;;7.40;99.90;;;;;;5050257;28;20177;-69
2024/01/14 10:38:34;;;;;;;12.87;7.37;;;7.10;99.90;;;;;;5050844;28;20196;-70
2024/01/14 10:40:59;;;;;;;10.87;7.27;;;7.30;99.90;;;;;;5051003;28;20201;-69
2024/01/14 10:43:26;;;;;;;14.30;8.07;;;7.20;99.90;;;;;;5051004;28;20649;-70
2024/01/14 10:45:52;;;;;;;15.23;7.27;;;7.30;99.90;;;;;;5050848;28;20171;-69
2024/01/14 10:48:26;;;;;;;9.33;6.30;;;8.10;99.90;;;;;;5050898;28;20187;-68
2024/01/14 10:51:00;;;;;;;10.50;5.53;;;8.70;99.90;;;;;;5050802;28;20262;-69
2024/01/14 10:53:41;;;;;;;9.63;5.23;;;8.80;99.90;;;;;;5050836;28;20508;-68
2024/01/14 10:56:15;;;;;;;8.80;4.97;;;8.60;99.90;;;;;;5051115;28;20165;-68
2024/01/14 10:58:41;;;;;;;5.43;3.67;;;9.10;99.90;;;;;;5032949;28;20176;-68
2024/01/14 11:01:10;;;;;;;7.90;4.30;;;8.20;99.90;;;;;;5050667;28;20213;-68
2024/01/14 11:03:38;;;;;;;7.73;4.00;;;8.30;99.90;;;;;;5050693;28;20160;-68
2024/01/14 11:06:05;;;;;;;7.43;3.70;;;8.30;99.90;;;;;;5050805;28;20658;-69
2024/01/14 11:08:32;;;;;;;9.40;3.60;;;8.10;99.90;;;;;;5050770;28;20188;-69
2024/01/14 11:10:59;;;;;;;6.90;3.90;;;8.10;99.90;;;;;;5050716;28;20178;-69
2024/01/14 11:13:49;;;;;;;6.73;3.60;;;8.10;99.90;;;;;;5050698;28;20173;-70
2024/01/14 11:16:40;;;;;;;6.00;3.90;;;8.10;99.90;;;;;;5050750;28;20267;-70
2024/01/14 11:19:14;;;;;;;8.60;4.10;;;7.90;99.90;;;;;;5051533;28;20169;-70
2024/01/14 11:21:58;;;;;;;9.03;4.33;;;7.90;99.90;;;;;;5054435;28;20216;-70
2024/01/14 11:24:25;;;;;;;7.87;4.50;;;8.00;99.90;;;;;;5054496;28;20201;-69
2024/01/14 11:26:51;;;;;;;9.40;4.73;;;8.00;99.90;;;;;;5054479;28;20470;-69
2024/01/14 11:29:34;;;;;;;9.10;4.27;;;7.90;99.90;;;;;;5054477;28;20180;-70
2024/01/14 11:32:20;;;;;;;8.53;4.57;;;7.90;99.90;;;;;;5054305;28;20255;-70
2024/01/14 11:34:57;;;;;;;8.13;4.13;;;7.90;99.90;;;;;;5054183;28;20224;-70
2024/01/14 11:37:29;;;;;;;8.80;4.60;;;8.10;99.90;;;;;;5054107;28;20578;-70
2024/01/14 11:40:07;;;;;;;8.70;4.60;;;8.20;99.90;;;;;;5054161;28;20169;-70
2024/01/14 11:42:50;;;;;;;8.63;4.40;;;8.40;99.90;;;;;;5054144;28;20655;-70
2024/01/14 11:45:27;;;;;;;9.53;4.43;;;8.40;99.90;;;;;;5054199;28;20184;-70
2024/01/14 11:47:56;;;;;;;8.07;3.60;;;9.10;99.90;;;;;;5053942;28;20177;-69
2024/01/14 11:50:24;;;;;;;7.40;3.53;;;10.40;99.90;;;;;;5054124;28;20165;-69
2024/01/14 11:52:51;;;;;;;6.23;3.50;;;10.10;99.90;;;;;;5053985;28;20181;-70
2024/01/14 11:55:23;;;;;;;6.23;3.10;;;10.90;99.90;;;;;;5053870;28;20204;-67
2024/01/14 11:57:49;;;;;;;7.80;4.13;;;10.80;99.90;;;;;;5046005;28;20185;-68
2024/01/14 12:00:16;;;;;;;8.47;3.70;;;11.10;99.90;;;;;;5032218;28;20182;-68
2024/01/14 12:02:42;;;;;;;9.05;4.28;;;13.60;99.90;;;;;;5036256;28;20228;-69
2024/01/14 12:05:15;;;;;;;10.88;4.47;;;14.80;99.90;;;;;;5053694;28;20169;-68
2024/01/14 12:07:41;;;;;;;8.88;4.13;;;14.00;99.90;;;;;;5053666;28;20172;-70
2024/01/14 12:10:07;;;;;;;6.68;4.10;;;13.10;99.90;;;;;;5035536;28;20177;-69
2024/01/14 12:12:36;;;;;;;6.53;4.32;;;12.70;99.90;;;;;;5053450;28;20509;-69
2024/01/14 12:15:02;;;;;;;8.43;4.35;;;12.30;99.90;;;;;;5049601;28;20201;-69
2024/01/14 12:17:28;;;;;;;7.70;4.55;;;12.40;99.90;;;;;;5033528;28;20216;-69
2024/01/14 12:19:58;;;;;;;8.93;4.97;;;12.30;99.90;;;;;;5033460;28;20220;-69
2024/01/14 12:22:24;;;;;;;11.65;5.93;;;11.80;99.90;;;;;;5033254;28;20216;-68
2024/01/14 12:24:50;;;;;;;10.75;5.65;;;11.70;99.90;;;;;;5033141;28;20536;-70
2024/01/14 12:27:15;;;;;;;7.40;4.78;;;12.30;99.90;;;;;;5033582;28;20595;-69
2024/01/14 12:29:42;;;;;;;8.55;4.97;;;14.30;99.90;;;;;;5033109;28;20633;-69
2024/01/14 12:32:09;;;;;;;8.77;4.78;;;18.40;99.90;;;;;;5033187;28;20162;-69
2024/01/14 12:34:38;;;;;;;9.60;5.00;;;18.60;99.90;;;;;;5033240;28;20193;-70
2024/01/14 12:37:04;;;;;;;10.48;5.03;;;19.10;99.90;;;;;;5032935;28;20221;-69
2024/01/14 12:39:30;;;;;;;7.85;4.68;;;19.90;99.90;;;;;;5015310;28;20188;-70
2024/01/14 12:41:56;;;;;;;8.05;4.70;;;20.30;99.90;;;;;;5032851;28;20209;-69